Homer, Ohio
Current Conditions -  °F | °C
As of 2:15 PM on Saturday 25 Oct 2014 (Local Time) from K4I3 Reporting Station
Scattered Clouds Scattered Clouds  
Wind Chill: 68°   Ceiling: Unl
Heat Index: 68°   Visibility: 10mi
Dew Point: 55°   Wind: 13mph
Humidity: 64%   Direction: 240°WSW
Pressure: 29.85"   Gusts: 18mph
Location:  40.25°N, 82.51°W
Report Text: K4I3 251815Z AUTO 24011G16KT 10SM SCT027 20/13 A2985 RMK AO2
Loading
Personal Weather Stations






























Interactive Weather Map New forecast layout! Learn more

10-Day Weather Forecast

Advertisements
Track Severe Weather on mobile